Time;durP1;ratioP1;P1;durP2;ratioP2;P2;SDS_P1;SDS_P2;PMS_P1;PMS_P2;Temp;Humidity;BMP_temperature;BMP_pressure;BME280_temperature;BME280_humidity;BME280_pressure;Samples;Min_cycle;Max_cycle;Signal;HPM_P1;HPM_P2
2022/10/30 00:00:07;;;;;;;19.88;7.57;;;;;;;17.03;70.83;101583.75;6184587;23;20013;-84
2022/10/30 00:02:32;;;;;;;18.83;6.70;;;;;;;16.98;70.82;101590.91;6186172;23;20446;-83
2022/10/30 00:04:58;;;;;;;17.70;6.70;;;;;;;16.90;71.04;101580.25;6184791;23;20331;-83
2022/10/30 00:07:23;;;;;;;19.45;6.78;;;;;;;16.90;71.39;101582.91;6185802;23;20067;-83
2022/10/30 00:09:48;;;;;;;16.70;7.10;;;;;;;16.89;71.50;101593.63;6186118;23;20013;-83
2022/10/30 00:12:14;;;;;;;18.83;6.10;;;;;;;16.93;71.97;101590.94;6160493;23;20080;-83
2022/10/30 00:14:39;;;;;;;17.27;7.05;;;;;;;16.90;71.39;101585.59;6185171;23;20013;-83
2022/10/30 00:17:04;;;;;;;13.32;6.43;;;;;;;16.90;71.36;101582.03;6159846;23;20446;-83
2022/10/30 00:19:30;;;;;;;17.65;6.80;;;;;;;16.88;71.44;101587.38;6159839;23;20020;-83
2022/10/30 00:21:56;;;;;;;16.15;7.35;;;;;;;16.92;71.17;101572.25;6186768;23;20009;-83
2022/10/30 00:24:22;;;;;;;15.80;6.63;;;;;;;17.00;71.63;101599.78;6159949;23;20005;-83
2022/10/30 00:26:48;;;;;;;19.17;6.85;;;;;;;16.91;71.23;101590.03;6186144;23;20027;-83
2022/10/30 00:29:14;;;;;;;13.95;6.55;;;;;;;16.92;71.47;101591.81;6135224;23;20009;-83
2022/10/30 00:31:39;;;;;;;18.13;6.88;;;;;;;16.76;71.83;101601.66;6185727;23;20436;-83
2022/10/30 00:34:04;;;;;;;17.35;6.45;;;;;;;16.72;72.00;101586.53;6184865;23;20044;-83
2022/10/30 00:36:30;;;;;;;23.50;7.43;;;;;;;16.68;72.23;101583.84;6186042;23;20454;-83
2022/10/30 00:38:55;;;;;;;16.98;7.15;;;;;;;16.69;72.03;101582.94;6185642;23;20076;-82
2022/10/30 00:41:23;;;;;;;21.80;7.18;;;;;;;16.68;72.20;101590.06;6186701;23;20005;-83
2022/10/30 00:43:48;;;;;;;18.02;7.18;;;;;;;16.66;72.03;101578.53;6186767;23;20017;-83
2022/10/30 00:46:19;;;;;;;19.40;6.57;;;;;;;16.65;72.26;101584.72;6159716;23;20328;-83
2022/10/30 00:48:51;;;;;;;18.65;6.82;;;;;;;16.67;72.24;101582.06;6186313;23;20004;-83
2022/10/30 00:51:17;;;;;;;14.65;7.25;;;;;;;16.55;72.63;101566.09;6162184;23;20063;-83
2022/10/30 00:53:43;;;;;;;17.08;7.07;;;;;;;16.52;72.54;101580.31;6186279;23;20005;-83
2022/10/30 00:56:11;;;;;;;20.95;7.28;;;;;;;16.48;72.92;101578.53;6187827;23;20012;-83
2022/10/30 00:58:41;;;;;;;17.35;7.03;;;;;;;16.46;73.23;101580.34;6187775;23;20009;-83
2022/10/30 01:01:15;;;;;;;16.73;6.80;;;;;;;16.47;72.74;101571.44;6187742;23;20059;-83
2022/10/30 01:03:40;;;;;;;18.33;7.22;;;;;;;16.49;72.90;101577.69;6187285;23;20309;-83
2022/10/30 01:06:09;;;;;;;16.77;6.97;;;;;;;16.44;72.76;101569.66;6187264;23;20137;-83
2022/10/30 01:08:37;;;;;;;20.33;7.00;;;;;;;16.41;72.91;101572.34;6187598;23;20040;-82
2022/10/30 01:11:03;;;;;;;20.33;7.07;;;;;;;16.36;73.18;101568.81;6187176;23;20009;-83
2022/10/30 01:13:30;;;;;;;17.92;7.00;;;;;;;16.36;73.15;101578.56;6187657;23;20013;-82
2022/10/30 01:16:03;;;;;;;16.17;7.35;;;;;;;16.33;73.15;101576.81;6161327;23;20005;-83
2022/10/30 01:18:49;;;;;;;14.57;7.15;;;;;;;16.24;73.70;101576.81;6187986;23;20001;-83
2022/10/30 01:21:29;;;;;;;18.45;7.10;;;;;;;16.23;73.69;101586.59;6187610;23;20103;-83
2022/10/30 01:24:12;;;;;;;18.55;7.25;;;;;;;16.20;73.62;101577.72;6187277;23;20001;-83
2022/10/30 01:26:50;;;;;;;19.90;7.43;;;;;;;16.14;73.76;101588.34;6187182;23;20308;-83
2022/10/30 01:29:24;;;;;;;14.35;6.47;;;;;;;16.15;74.15;101591.03;6186354;23;20051;-84
2022/10/30 01:32:18;;;;;;;15.88;6.78;;;;;;;16.19;73.71;101590.16;6187476;23;20005;-84
2022/10/30 01:35:06;;;;;;;20.08;7.22;;;;;;;16.20;73.80;101586.59;6187472;23;20012;-83
2022/10/30 01:37:37;;;;;;;23.45;7.18;;;;;;;16.21;73.73;101590.16;6187449;23;20015;-83
2022/10/30 01:40:07;;;;;;;19.33;7.40;;;;;;;16.18;73.87;101576.81;6187394;23;20005;-83
2022/10/30 01:42:49;;;;;;;17.30;6.97;;;;;;;16.26;73.50;101593.69;6187822;23;20020;-82
2022/10/30 01:45:45;;;;;;;15.55;7.22;;;;;;;16.19;73.49;101592.81;6185759;23;20089;-82
2022/10/30 01:48:34;;;;;;;18.02;7.07;;;;;;;16.06;73.92;101595.47;6187717;23;20088;-83
2022/10/30 01:51:06;;;;;;;16.13;7.07;;;;;;;15.99;73.85;101589.25;6187350;23;20012;-83
2022/10/30 01:53:34;;;;;;;16.55;7.25;;;;;;;15.94;73.89;101585.72;6187232;23;20009;-83
2022/10/30 01:56:22;;;;;;;19.10;6.57;;;;;;;15.89;74.34;101585.72;6187290;23;20424;-82
2022/10/30 01:59:01;;;;;;;19.98;7.07;;;;;;;15.83;74.44;101591.03;6185713;23;20001;-83
2022/10/30 02:01:30;;;;;;;15.55;7.30;;;;;;;15.77;74.63;101591.03;6187521;23;20009;-82
2022/10/30 02:03:55;;;;;;;18.13;7.28;;;;;;;15.82;74.41;101596.34;6187044;23;20420;-83
2022/10/30 02:06:21;;;;;;;19.98;7.80;;;;;;;15.76;74.84;101598.13;6135843;23;20009;-83
2022/10/30 02:08:46;;;;;;;17.05;7.60;;;;;;;15.72;75.08;101600.78;6187223;23;20016;-83
2022/10/30 02:11:13;;;;;;;18.98;7.75;;;;;;;15.68;75.09;101601.66;6186222;23;20009;-83
2022/10/30 02:13:38;;;;;;;17.77;6.68;;;;;;;15.61;75.43;101602.50;6187380;23;20435;-83
2022/10/30 02:16:04;;;;;;;16.13;7.22;;;;;;;15.57;75.82;101606.94;6187383;23;20009;-83
2022/10/30 02:18:30;;;;;;;23.30;8.43;;;;;;;15.59;76.19;101604.25;6160513;23;20040;-83
2022/10/30 02:20:55;;;;;;;18.27;7.45;;;;;;;15.49;75.80;101598.03;6186637;23;20428;-83
2022/10/30 02:23:21;;;;;;;18.00;7.80;;;;;;;15.52;76.17;101598.03;6186890;23;20009;-83
2022/10/30 02:25:46;;;;;;;19.40;7.40;;;;;;;15.51;75.35;101591.84;6187107;23;20104;-82
2022/10/30 02:28:12;;;;;;;20.58;7.18;;;;;;;15.50;75.35;101597.13;6185373;23;20017;-83
2022/10/30 02:30:39;;;;;;;19.05;7.00;;;;;;;15.57;75.65;101598.94;6185331;23;20016;-83
2022/10/30 02:33:05;;;;;;;13.50;6.65;;;;;;;15.59;75.92;101615.84;6161193;23;20040;-83
2022/10/30 02:35:30;;;;;;;16.20;7.22;;;;;;;15.53;75.22;101614.00;6185266;23;20040;-83
2022/10/30 02:37:55;;;;;;;18.80;7.30;;;;;;;15.55;75.55;101618.50;6186884;23;20095;-83
2022/10/30 02:40:21;;;;;;;16.25;7.10;;;;;;;15.55;76.14;101615.81;6160618;23;20328;-84
2022/10/30 02:42:54;;;;;;;16.52;7.00;;;;;;;15.56;75.96;101615.81;6170424;23;20025;-82
2022/10/30 02:45:19;;;;;;;17.05;7.30;;;;;;;15.51;75.10;101617.59;6187051;23;20008;-82
2022/10/30 02:47:45;;;;;;;17.17;7.75;;;;;;;15.44;76.02;101627.31;6185262;23;20009;-82
2022/10/30 02:50:10;;;;;;;19.58;7.47;;;;;;;15.44;76.27;101616.66;6186777;23;20080;-83
2022/10/30 02:52:35;;;;;;;16.65;7.38;;;;;;;15.35;76.63;101621.06;6185652;23;20010;-83
2022/10/30 02:55:01;;;;;;;23.05;7.72;;;;;;;15.27;77.00;101616.59;6186759;23;20036;-83
2022/10/30 02:57:26;;;;;;;17.40;7.63;;;;;;;15.22;77.10;101620.13;6187066;23;20329;-83
2022/10/30 02:59:51;;;;;;;18.13;7.45;;;;;;;15.14;77.71;101608.56;6186654;23;20005;-83
2022/10/30 03:02:18;;;;;;;17.10;7.57;;;;;;;15.09;78.82;101611.22;6211344;23;20017;-82
2022/10/30 03:04:43;;;;;;;20.17;7.93;;;;;;;15.09;77.56;101605.00;6186935;23;20416;-82
2022/10/30 03:07:08;;;;;;;18.42;7.20;;;;;;;15.14;78.54;101611.22;6186460;23;20016;-82
2022/10/30 03:09:34;;;;;;;16.35;7.68;;;;;;;15.13;78.04;101605.03;6186309;23;20366;-82
2022/10/30 03:11:59;;;;;;;20.73;7.70;;;;;;;15.13;77.87;101604.13;6184983;23;20013;-82
2022/10/30 03:14:25;;;;;;;19.45;7.60;;;;;;;15.05;77.15;101606.75;6184955;23;20013;-83
2022/10/30 03:16:51;;;;;;;14.32;7.57;;;;;;;15.07;77.97;101597.00;6186365;23;20080;-82
2022/10/30 03:19:17;;;;;;;14.30;7.28;;;;;;;15.03;76.67;101606.75;6186282;23;20009;-82
2022/10/30 03:21:43;;;;;;;19.23;7.55;;;;;;;14.95;77.79;101610.28;6187155;23;20019;-82
2022/10/30 03:24:08;;;;;;;20.42;7.50;;;;;;;14.91;77.54;101609.34;6186623;23;20036;-82
2022/10/30 03:26:34;;;;;;;18.30;7.70;;;;;;;14.91;77.15;101604.03;6186508;23;20012;-82
2022/10/30 03:28:59;;;;;;;21.70;7.05;;;;;;;14.95;76.97;101599.63;6186596;23;20005;-82
2022/10/30 03:31:25;;;;;;;14.32;7.03;;;;;;;14.92;78.32;101595.16;6186277;23;20013;-82
2022/10/30 03:33:50;;;;;;;24.20;7.25;;;;;;;15.00;78.89;101600.53;6186508;23;20026;-82
2022/10/30 03:36:15;;;;;;;18.42;7.38;;;;;;;15.01;78.04;101596.97;6186371;23;20009;-82
2022/10/30 03:38:41;;;;;;;14.88;7.18;;;;;;;14.95;78.13;101599.63;6184870;23;20055;-82
2022/10/30 03:41:07;;;;;;;12.02;7.00;;;;;;;15.06;77.97;101604.97;6186234;23;20360;-82
2022/10/30 03:43:33;;;;;;;18.98;7.57;;;;;;;15.03;77.38;101601.44;6184913;23;20017;-82
2022/10/30 03:45:58;;;;;;;16.17;7.35;;;;;;;15.02;78.84;101602.28;6184712;23;20032;-83
2022/10/30 03:48:26;;;;;;;21.70;7.60;;;;;;;15.04;77.67;101597.00;6184799;23;20009;-82
2022/10/30 03:50:55;;;;;;;16.08;7.40;;;;;;;15.10;77.37;101609.44;6185927;23;20509;-82
2022/10/30 03:53:22;;;;;;;19.50;6.45;;;;;;;15.17;78.30;101616.56;6186614;23;19997;-82
2022/10/30 03:55:48;;;;;;;21.08;7.18;;;;;;;15.13;77.76;101606.78;6186297;23;20005;-82
2022/10/30 03:58:14;;;;;;;18.45;7.38;;;;;;;15.16;79.03;101612.09;6186400;23;20332;-82
2022/10/30 04:00:39;;;;;;;16.88;7.30;;;;;;;15.15;78.26;101607.69;6135301;23;20560;-83
2022/10/30 04:03:06;;;;;;;16.98;7.07;;;;;;;15.18;77.86;101608.59;6184841;23;20009;-82
2022/10/30 04:05:32;;;;;;;17.05;7.15;;;;;;;15.16;78.72;101610.38;6185770;23;20028;-83
2022/10/30 04:08:01;;;;;;;14.30;6.88;;;;;;;15.14;78.68;101619.22;6186269;23;20436;-82
2022/10/30 04:10:27;;;;;;;13.80;7.07;;;;;;;15.18;78.52;101616.56;6185936;23;20437;-82
2022/10/30 04:12:58;;;;;;;21.10;6.80;;;;;;;15.17;77.48;101616.56;6186978;23;20044;-82
2022/10/30 04:15:23;;;;;;;12.98;6.65;;;;;;;15.17;77.52;101609.47;6186462;23;20485;-82
2022/10/30 04:17:50;;;;;;;14.45;6.68;;;;;;;15.11;78.12;101633.38;6185185;23;20033;-82
2022/10/30 04:20:19;;;;;;;20.30;7.15;;;;;;;15.16;77.45;101629.00;6186376;23;20005;-82
2022/10/30 04:22:45;;;;;;;22.65;7.32;;;;;;;15.13;76.29;101626.31;6184459;23;20005;-82
2022/10/30 04:25:10;;;;;;;16.95;7.13;;;;;;;15.10;76.39;101615.63;6187162;23;20001;-83
2022/10/30 04:27:43;;;;;;;19.58;7.55;;;;;;;15.11;77.08;101620.06;6188264;23;20009;-82
2022/10/30 04:30:10;;;;;;;15.10;7.18;;;;;;;15.10;77.55;101620.97;6188622;23;20012;-83
2022/10/30 04:32:36;;;;;;;17.00;7.20;;;;;;;15.00;76.67;101608.50;6188155;23;20062;-83
2022/10/30 04:35:03;;;;;;;14.50;6.75;;;;;;;14.87;77.70;101618.19;6211694;23;20383;-82
2022/10/30 04:37:28;;;;;;;17.70;7.30;;;;;;;14.76;79.11;101609.25;6188549;23;20424;-82
2022/10/30 04:39:54;;;;;;;14.45;6.78;;;;;;;14.77;78.85;101616.34;6186392;23;20013;-82
2022/10/30 04:42:19;;;;;;;17.05;7.03;;;;;;;14.73;79.14;101619.88;6186434;23;20432;-82
2022/10/30 04:44:45;;;;;;;20.10;7.03;;;;;;;14.70;78.74;101612.78;6187916;23;20067;-82
2022/10/30 04:47:10;;;;;;;18.70;7.03;;;;;;;14.73;78.14;101612.81;6186649;23;20447;-82
2022/10/30 04:49:35;;;;;;;14.63;7.07;;;;;;;14.74;78.12;101593.31;6186517;23;20013;-83
2022/10/30 04:52:01;;;;;;;11.18;6.85;;;;;;;14.84;77.69;101606.66;6187678;23;20084;-82
2022/10/30 04:54:27;;;;;;;12.38;6.55;;;;;;;14.86;77.01;101597.81;6186197;23;20065;-82
2022/10/30 04:56:53;;;;;;;13.63;6.50;;;;;;;14.90;77.29;101588.03;6188344;23;20009;-83
2022/10/30 04:59:18;;;;;;;18.05;7.22;;;;;;;14.90;78.18;101583.63;6211514;23;20033;-82
2022/10/30 05:01:43;;;;;;;16.20;7.38;;;;;;;14.99;78.68;101578.34;6186177;23;20032;-82
2022/10/30 05:04:09;;;;;;;13.57;6.75;;;;;;;14.96;78.50;101575.66;6188281;23;20009;-82
2022/10/30 05:06:34;;;;;;;15.18;6.13;;;;;;;14.99;79.25;101578.34;6186598;23;20005;-82
2022/10/30 05:08:59;;;;;;;19.48;7.10;;;;;;;14.97;79.16;101580.09;6187565;23;20013;-82
2022/10/30 05:11:25;;;;;;;19.92;6.63;;;;;;;14.94;79.28;101588.06;6188659;23;20009;-82
2022/10/30 05:13:50;;;;;;;18.38;6.40;;;;;;;14.94;79.17;101581.84;6162184;23;20013;-82
2022/10/30 05:16:16;;;;;;;15.77;6.78;;;;;;;14.87;79.46;101582.72;6187987;23;20084;-81
2022/10/30 05:18:41;;;;;;;16.35;6.93;;;;;;;14.79;79.74;101588.00;6188102;23;20013;-82
2022/10/30 05:21:06;;;;;;;19.90;7.03;;;;;;;14.66;79.34;101586.16;6211592;23;20009;-83
2022/10/30 05:23:32;;;;;;;15.38;6.65;;;;;;;14.66;79.85;101583.50;6191557;23;20005;-82
2022/10/30 05:26:00;;;;;;;17.33;7.03;;;;;;;14.60;80.05;101579.00;6192207;23;20015;-82
2022/10/30 05:28:26;;;;;;;15.27;6.70;;;;;;;14.69;79.75;101591.50;6191326;23;20009;-82
2022/10/30 05:30:52;;;;;;;21.13;7.30;;;;;;;14.75;79.80;101586.19;6189157;23;20017;-83
2022/10/30 05:33:18;;;;;;;15.40;6.63;;;;;;;14.75;78.22;101587.09;6191051;23;20110;-82
2022/10/30 05:35:43;;;;;;;12.40;6.28;;;;;;;14.76;78.19;101580.00;6191979;23;20423;-83
2022/10/30 05:38:09;;;;;;;14.27;6.80;;;;;;;14.74;79.22;101605.72;6193811;23;20051;-83
2022/10/30 05:40:35;;;;;;;14.02;6.53;;;;;;;14.78;79.19;101607.50;6190352;23;20439;-82
2022/10/30 05:43:00;;;;;;;16.42;7.28;;;;;;;14.80;78.90;101602.19;6191074;23;20332;-82
2022/10/30 05:45:26;;;;;;;22.17;7.07;;;;;;;14.73;78.49;101609.22;6165664;23;20013;-83
2022/10/30 05:47:55;;;;;;;16.90;6.68;;;;;;;14.73;78.64;101601.25;6191159;23;20009;-82
2022/10/30 05:50:20;;;;;;;17.00;6.93;;;;;;;14.69;78.85;101605.69;6191767;23;20005;-82
2022/10/30 05:52:46;;;;;;;20.85;6.72;;;;;;;14.65;78.72;101603.00;6164259;23;20055;-83
2022/10/30 05:55:11;;;;;;;12.63;6.43;;;;;;;14.67;78.71;101595.91;6187919;23;20020;-82
2022/10/30 05:57:36;;;;;;;17.13;6.88;;;;;;;14.71;78.65;101600.38;6187836;23;20005;-81
2022/10/30 06:00:03;;;;;;;13.85;6.85;;;;;;;14.71;79.12;101600.38;6188025;23;20005;-82
2022/10/30 06:02:29;;;;;;;12.77;7.00;;;;;;;14.70;78.90;101591.50;6192797;23;20027;-82
2022/10/30 06:04:54;;;;;;;16.02;7.13;;;;;;;14.66;78.08;101595.03;6195371;23;20009;-81
2022/10/30 06:07:19;;;;;;;22.98;6.72;;;;;;;14.64;77.72;101593.22;6188839;23;20009;-82
2022/10/30 06:09:45;;;;;;;17.85;6.78;;;;;;;14.61;78.05;101590.56;6199020;23;20009;-82
2022/10/30 06:12:10;;;;;;;15.63;6.65;;;;;;;14.60;77.67;101594.97;6193818;23;20301;-82
2022/10/30 06:14:35;;;;;;;16.25;6.82;;;;;;;14.51;77.45;101597.56;6197529;23;20005;-81
2022/10/30 06:17:01;;;;;;;13.20;6.82;;;;;;;14.40;77.53;101599.25;6170842;23;20013;-82
2022/10/30 06:19:26;;;;;;;12.95;6.47;;;;;;;14.26;78.36;101599.13;6201556;23;20009;-82
2022/10/30 06:21:53;;;;;;;19.35;6.72;;;;;;;14.31;78.31;101608.06;6203663;23;20006;-81
2022/10/30 06:24:19;;;;;;;11.90;6.40;;;;;;;14.24;77.99;101604.44;6175184;23;20032;-81
2022/10/30 06:26:44;;;;;;;14.02;6.22;;;;;;;14.23;77.95;101596.47;6199239;23;20001;-83
2022/10/30 06:29:10;;;;;;;14.63;6.43;;;;;;;14.25;78.04;101614.19;6202163;23;20427;-83
2022/10/30 06:31:35;;;;;;;16.77;6.63;;;;;;;14.27;78.54;101599.16;6200804;23;20012;-82
2022/10/30 06:34:01;;;;;;;15.63;7.00;;;;;;;14.24;78.58;101599.13;6198658;23;20005;-82
2022/10/30 06:36:26;;;;;;;13.52;6.68;;;;;;;14.21;78.90;101598.22;6197142;23;20009;-82
2022/10/30 06:38:51;;;;;;;13.75;7.30;;;;;;;14.21;79.41;101599.09;6171679;23;20012;-82
2022/10/30 06:41:17;;;;;;;12.93;6.43;;;;;;;14.22;79.80;101600.91;6175392;23;20013;-82
2022/10/30 06:43:42;;;;;;;13.68;6.53;;;;;;;14.22;78.83;101594.69;6192941;23;20037;-82
2022/10/30 06:46:08;;;;;;;11.65;6.03;;;;;;;14.00;77.84;101594.53;6199244;23;20009;-81
2022/10/30 06:48:33;;;;;;;17.20;6.55;;;;;;;13.87;78.40;101592.59;6195291;23;20077;-82
2022/10/30 06:51:01;;;;;;;10.65;6.13;;;;;;;13.78;79.31;101597.84;6195697;23;20020;-82
2022/10/30 06:53:27;;;;;;;15.63;7.18;;;;;;;13.76;80.26;101600.47;6195520;23;20013;-82
2022/10/30 06:55:57;;;;;;;14.13;5.95;;;;;;;13.77;79.75;101598.72;6196716;23;20017;-82
2022/10/30 06:58:23;;;;;;;14.73;6.47;;;;;;;13.76;79.87;101594.28;6218122;23;20013;-82
2022/10/30 07:00:49;;;;;;;12.02;6.47;;;;;;;13.76;80.01;101600.47;6192567;23;20023;-83
2022/10/30 07:03:14;;;;;;;14.10;6.10;;;;;;;13.90;79.30;101595.28;6191278;23;20012;-82
2022/10/30 07:05:40;;;;;;;11.23;6.50;;;;;;;13.97;79.47;101593.59;6198639;23;20029;-82
2022/10/30 07:08:05;;;;;;;12.60;6.10;;;;;;;14.09;78.89;101590.13;6218794;23;20013;-82
2022/10/30 07:10:30;;;;;;;19.92;6.63;;;;;;;14.18;79.45;101576.94;6216640;23;20009;-82
2022/10/30 07:12:57;;;;;;;14.77;6.22;;;;;;;14.25;79.00;101578.75;6166995;23;20081;-82
2022/10/30 07:15:23;;;;;;;13.85;6.03;;;;;;;14.27;78.08;101574.34;6208474;23;20000;-83
2022/10/30 07:18:00;;;;;;;15.63;6.50;;;;;;;14.25;78.17;101579.63;6212575;23;20052;-84
2022/10/30 07:20:27;;;;;;;13.35;5.80;;;;;;;14.16;78.53;101568.06;6210767;23;20063;-83
2022/10/30 07:22:53;;;;;;;14.63;6.68;;;;;;;14.18;79.63;101580.50;6212056;23;20004;-82
2022/10/30 07:25:19;;;;;;;13.88;6.82;;;;;;;14.25;80.55;101589.38;6212286;23;20001;-84
2022/10/30 07:27:50;;;;;;;18.35;6.75;;;;;;;14.35;80.84;101585.94;6235928;23;20011;-83
2022/10/30 07:30:18;;;;;;;18.77;6.53;;;;;;;14.42;79.47;101592.16;6210918;23;20005;-81
2022/10/30 07:32:44;;;;;;;13.95;6.35;;;;;;;14.49;79.60;101586.94;6210658;23;19997;-83
2022/10/30 07:35:11;;;;;;;19.83;6.10;;;;;;;14.47;80.17;101580.69;6210351;23;20016;-83
2022/10/30 07:37:37;;;;;;;13.85;6.60;;;;;;;14.61;80.29;101587.91;6206428;23;20001;-81
2022/10/30 07:40:03;;;;;;;18.50;6.78;;;;;;;14.71;80.38;101587.94;6225656;23;20020;-82
2022/10/30 07:42:29;;;;;;;16.73;6.70;;;;;;;14.81;80.36;101594.19;6198023;23;20095;-82
2022/10/30 07:44:54;;;;;;;15.18;6.95;;;;;;;14.88;80.14;101595.13;6193330;23;20040;-82
2022/10/30 07:47:20;;;;;;;16.13;7.05;;;;;;;14.92;80.59;101591.63;6200183;23;20087;-82
2022/10/30 07:49:45;;;;;;;13.95;6.82;;;;;;;15.00;80.48;101579.22;6159364;23;19989;-81
2022/10/30 07:52:10;;;;;;;17.13;7.50;;;;;;;15.19;80.07;101585.50;6206467;23;20005;-82
2022/10/30 07:54:36;;;;;;;16.80;7.07;;;;;;;15.46;79.75;101590.94;6199402;23;20009;-81
2022/10/30 07:57:02;;;;;;;17.58;7.00;;;;;;;15.64;78.53;101589.19;6166049;23;20013;-82
2022/10/30 07:59:27;;;;;;;15.13;7.05;;;;;;;15.77;78.41;101589.25;6203098;23;20032;-82
2022/10/30 08:01:53;;;;;;;14.43;6.63;;;;;;;15.91;77.98;101583.91;6194011;23;20091;-83
2022/10/30 08:04:18;;;;;;;17.33;6.80;;;;;;;15.93;77.51;101590.16;6187815;23;20013;-82
2022/10/30 08:06:43;;;;;;;20.25;7.28;;;;;;;16.02;77.10;101591.94;6188127;23;20044;-82
2022/10/30 08:09:09;;;;;;;15.85;6.70;;;;;;;16.37;77.27;101586.59;6186083;23;20009;-82
2022/10/30 08:11:34;;;;;;;15.55;6.97;;;;;;;16.82;75.60;101579.38;6187447;23;20005;-82
2022/10/30 08:14:00;;;;;;;18.40;6.63;;;;;;;17.30;73.75;101589.88;6187207;23;20009;-83
2022/10/30 08:16:26;;;;;;;18.48;6.80;;;;;;;17.65;71.46;101582.56;6187043;23;20032;-82
2022/10/30 08:18:52;;;;;;;16.00;6.57;;;;;;;17.81;70.54;101577.13;6161346;23;20009;-82
2022/10/30 08:21:17;;;;;;;21.05;6.80;;;;;;;17.87;69.88;101574.41;6159942;23;20458;-82
2022/10/30 08:23:43;;;;;;;19.27;6.70;;;;;;;17.85;70.15;101573.50;6160047;23;20017;-82
2022/10/30 08:26:08;;;;;;;15.90;6.72;;;;;;;17.79;70.43;101561.09;6159949;23;20012;-82
2022/10/30 08:28:33;;;;;;;16.15;7.43;;;;;;;17.88;70.20;101558.34;6185924;23;20036;-82
2022/10/30 08:31:00;;;;;;;18.58;6.95;;;;;;;18.18;70.63;101559.88;6187698;23;20009;-83
2022/10/30 08:33:25;;;;;;;19.95;7.00;;;;;;;18.23;68.60;101567.84;6160941;23;20005;-83
2022/10/30 08:35:53;;;;;;;16.77;6.68;;;;;;;18.23;68.79;101587.47;6188329;23;20043;-82
2022/10/30 08:38:18;;;;;;;19.02;6.95;;;;;;;18.23;68.69;101587.47;6171352;23;20077;-81
2022/10/30 08:40:44;;;;;;;14.45;6.57;;;;;;;18.37;68.59;101587.34;6212083;23;20012;-83
2022/10/30 08:43:10;;;;;;;19.23;7.43;;;;;;;18.49;68.05;101595.22;6212100;23;20079;-83
2022/10/30 08:45:36;;;;;;;17.50;7.65;;;;;;;18.44;68.00;101583.69;6186139;23;19993;-82
2022/10/30 08:48:03;;;;;;;18.98;7.38;;;;;;;18.35;68.44;101559.72;6206601;23;20305;-82
2022/10/30 08:50:31;;;;;;;20.70;7.25;;;;;;;18.61;67.96;101567.47;6189270;23;20001;-82
2022/10/30 08:53:00;;;;;;;15.77;7.18;;;;;;;18.53;67.64;101578.25;6188437;23;20441;-85
2022/10/30 08:55:26;;;;;;;16.58;7.13;;;;;;;18.63;67.38;101578.13;6186243;23;20059;-83
2022/10/30 08:57:51;;;;;;;15.23;7.15;;;;;;;18.94;67.40;101579.63;6187328;23;20342;-83
2022/10/30 09:00:17;;;;;;;16.85;7.00;;;;;;;19.05;66.09;101582.16;6187248;23;20416;-83
2022/10/30 09:02:44;;;;;;;16.98;7.30;;;;;;;19.46;65.60;101581.59;6185284;23;20009;-81
2022/10/30 09:05:09;;;;;;;15.73;6.43;;;;;;;19.61;64.54;101593.03;6186070;23;20082;-83
2022/10/30 09:07:35;;;;;;;13.43;6.68;;;;;;;19.83;63.56;101586.47;6186701;23;20056;-83
2022/10/30 09:10:01;;;;;;;14.43;6.22;;;;;;;19.95;62.81;101591.59;6185763;23;20048;-84
2022/10/30 09:12:26;;;;;;;12.95;6.65;;;;;;;20.22;63.28;101570.63;6187416;23;20012;-83
2022/10/30 09:14:52;;;;;;;17.00;6.60;;;;;;;20.47;62.11;101574.63;6188028;23;20331;-82
2022/10/30 09:17:17;;;;;;;18.00;6.80;;;;;;;20.69;60.87;101574.25;6137901;23;20101;-84
2022/10/30 09:19:42;;;;;;;14.35;6.60;;;;;;;20.79;60.33;101577.63;6186524;23;20009;-84
2022/10/30 09:22:08;;;;;;;16.52;7.25;;;;;;;21.18;61.34;101567.84;6161367;23;20012;-85
2022/10/30 09:24:33;;;;;;;12.80;6.35;;;;;;;21.44;59.95;101551.19;6187683;23;20009;-83
2022/10/30 09:26:58;;;;;;;16.42;6.93;;;;;;;21.58;58.04;101551.72;6187796;23;20020;-83
2022/10/30 09:29:24;;;;;;;16.90;6.93;;;;;;;21.98;58.45;101551.66;6187833;23;20012;-81
2022/10/30 09:31:50;;;;;;;19.85;7.18;;;;;;;22.10;57.41;101545.09;6187743;23;20009;-82
2022/10/30 09:34:15;;;;;;;17.70;6.53;;;;;;;22.23;56.44;101540.28;6187672;23;20012;-83
2022/10/30 09:36:45;;;;;;;17.48;6.55;;;;;;;22.16;56.12;101550.31;6187543;23;20013;-83
2022/10/30 09:39:11;;;;;;;17.75;6.70;;;;;;;22.20;56.60;101552.00;6186117;23;20454;-82
2022/10/30 09:42:21;;;;;;;16.20;6.93;;;;;;;21.88;58.41;101552.78;6187984;23;20005;-83
2022/10/30 09:45:02;;;;;;;16.73;6.97;;;;;;;21.94;58.45;101555.34;6130575;23;20017;-83
2022/10/30 09:47:54;;;;;;;15.23;6.28;;;;;;;22.08;57.57;101559.50;6186157;23;20011;-83
2022/10/30 09:50:46;;;;;;;16.15;7.10;;;;;;;22.05;58.59;101564.94;6187697;23;20062;-83
2022/10/30 09:53:24;;;;;;;24.45;6.57;;;;;;;22.10;58.34;101576.47;6161054;23;20051;-83
2022/10/30 09:55:56;;;;;;;20.30;6.35;;;;;;;21.97;58.29;101578.63;6187278;23;20004;-83
2022/10/30 09:58:48;;;;;;;12.32;7.05;;;;;;;21.84;59.10;101587.88;6187648;23;20005;-83
2022/10/30 10:01:47;;;;;;;13.10;6.25;;;;;;;21.94;58.84;101600.22;6187540;23;20005;-83
2022/10/30 10:04:24;;;;;;;18.60;6.50;;;;;;;21.94;59.12;101592.13;6187131;23;20009;-83
2022/10/30 10:06:55;;;;;;;16.60;6.72;;;;;;;21.91;58.46;101593.09;6187372;23;20008;-83
2022/10/30 10:09:25;;;;;;;18.23;6.80;;;;;;;21.91;58.68;101586.81;6185878;23;20005;-82
2022/10/30 10:11:55;;;;;;;21.40;6.70;;;;;;;21.77;57.44;101583.59;6185867;23;20091;-83
2022/10/30 10:14:25;;;;;;;19.75;6.60;;;;;;;21.82;57.79;101579.88;6185469;23;20399;-83
2022/10/30 10:16:55;;;;;;;14.73;6.55;;;;;;;21.93;57.93;101576.94;6187040;23;20008;-83
2022/10/30 10:19:29;;;;;;;20.17;7.40;;;;;;;22.18;57.78;101579.88;6187454;23;20008;-83
2022/10/30 10:21:57;;;;;;;16.63;6.63;;;;;;;22.56;55.94;101567.22;6186960;23;20324;-83
2022/10/30 10:24:32;;;;;;;15.30;6.35;;;;;;;23.04;55.07;101567.69;6187029;23;20020;-83
2022/10/30 10:27:19;;;;;;;18.88;5.85;;;;;;;23.24;54.72;101576.03;6187227;23;20001;-83
2022/10/30 10:30:07;;;;;;;19.13;6.20;;;;;;;23.19;54.05;101575.31;6187340;23;20005;-83
2022/10/30 10:32:45;;;;;;;19.00;6.00;;;;;;;23.18;52.92;101572.66;6186233;23;20412;-83
2022/10/30 10:35:47;;;;;;;18.25;5.88;;;;;;;23.48;53.84;101569.03;6187248;23;20084;-83
2022/10/30 10:38:37;;;;;;;20.67;6.47;;;;;;;23.31;51.97;101562.38;6186418;23;19997;-83
2022/10/30 10:41:40;;;;;;;12.57;5.90;;;;;;;23.64;53.80;101565.81;6186806;23;20067;-83
2022/10/30 10:44:29;;;;;;;17.33;6.40;;;;;;;23.69;53.00;101554.00;6112094;23;20022;-83
2022/10/30 10:47:25;;;;;;;21.60;5.43;;;;;;;24.24;52.40;101554.84;6156948;23;20084;-83
2022/10/30 10:50:18;;;;;;;13.45;5.78;;;;;;;24.53;51.51;101568.28;6156861;23;20001;-83
2022/10/30 10:52:59;;;;;;;14.13;5.88;;;;;;;24.87;50.81;101563.41;6156907;23;20006;-83
2022/10/30 10:55:32;;;;;;;15.20;6.00;;;;;;;25.07;48.97;101557.25;6156914;23;20420;-83
2022/10/30 10:58:06;;;;;;;13.38;6.05;;;;;;;25.36;48.54;101556.16;6157208;23;20389;-83
2022/10/30 11:00:32;;;;;;;15.77;6.40;;;;;;;25.45;46.62;101550.38;6157262;23;20007;-83
2022/10/30 11:03:04;;;;;;;15.23;6.03;;;;;;;25.56;46.69;101547.22;6157450;23;20092;-83
2022/10/30 11:05:35;;;;;;;16.45;6.18;;;;;;;25.69;45.93;101558.41;6157430;23;20010;-83
2022/10/30 11:08:10;;;;;;;18.10;6.40;;;;;;;25.83;46.20;101564.22;6156990;23;20290;-83
2022/10/30 11:10:36;;;;;;;16.80;6.22;;;;;;;25.90;46.23;101565.69;6157158;23;20009;-83
2022/10/30 11:13:01;;;;;;;17.52;6.38;;;;;;;25.95;46.57;101547.44;6156361;23;20352;-83
2022/10/30 11:16:08;;;;;;;14.98;5.65;;;;;;;26.15;45.14;101548.41;6156325;23;20014;-83
2022/10/30 11:18:33;;;;;;;19.15;5.38;;;;;;;25.95;44.61;101539.31;6153032;23;20372;-84
2022/10/30 11:21:10;;;;;;;18.50;5.80;;;;;;;25.94;46.39;101537.53;6156677;23;20094;-84
2022/10/30 11:23:40;;;;;;;19.77;5.80;;;;;;;26.03;45.50;101541.69;6156960;23;20373;-83